createdAt,value
2022-10-28T00:01:22.962Z,17.54
2022-10-28T00:03:52.293Z,17.63
2022-10-28T00:06:22.101Z,17.71
2022-10-28T00:08:50.654Z,17.78
2022-10-28T00:11:20.753Z,17.62
2022-10-28T00:13:48.966Z,17.85
2022-10-28T00:16:20.779Z,17.86
2022-10-28T00:18:50.264Z,17.82
2022-10-28T00:21:19.876Z,17.86
2022-10-28T00:23:47.801Z,17.76
2022-10-28T00:26:17.306Z,17.82
2022-10-28T00:28:47.061Z,17.74
2022-10-28T00:31:19.772Z,17.84
2022-10-28T00:33:47.867Z,17.88
2022-10-28T00:36:17.524Z,17.93
2022-10-28T00:38:47.010Z,17.85
2022-10-28T00:41:17.822Z,17.69
2022-10-28T00:43:47.818Z,17.84
2022-10-28T00:46:25.496Z,17.80
2022-10-28T00:48:58.545Z,17.81
2022-10-28T00:51:28.164Z,17.99
2022-10-28T00:53:57.142Z,17.97
2022-10-28T00:56:29.054Z,17.79
2022-10-28T00:59:00.494Z,17.96
2022-10-28T01:01:30.023Z,18.04
2022-10-28T01:03:58.995Z,18.01
2022-10-28T01:06:28.594Z,18.10
2022-10-28T01:08:59.936Z,17.71
2022-10-28T01:11:46.615Z,17.85
2022-10-28T01:14:35.848Z,17.96
2022-10-28T01:17:37.687Z,17.99
2022-10-28T01:20:39.711Z,17.90
2022-10-28T01:23:14.041Z,17.84
2022-10-28T01:26:03.522Z,17.93
2022-10-28T01:28:50.859Z,17.76
2022-10-28T01:31:30.537Z,17.70
2022-10-28T01:34:06.966Z,17.69
2022-10-28T01:36:39.524Z,17.56
2022-10-28T01:39:16.681Z,17.68
2022-10-28T01:41:52.927Z,17.62
2022-10-28T01:44:27.279Z,17.68
2022-10-28T01:47:03.568Z,17.58
2022-10-28T01:49:39.321Z,17.57
2022-10-28T01:52:12.675Z,17.51
2022-10-28T01:54:41.641Z,17.58
2022-10-28T01:57:11.849Z,17.44
2022-10-28T01:59:40.910Z,17.42
2022-10-28T02:02:10.117Z,17.49
2022-10-28T02:04:37.927Z,17.55
2022-10-28T02:07:06.423Z,17.45
2022-10-28T02:09:48.356Z,17.62
2022-10-28T02:12:29.837Z,17.45
2022-10-28T02:15:28.155Z,17.51
2022-10-28T02:18:13.554Z,17.57
2022-10-28T02:20:50.603Z,17.50
2022-10-28T02:23:26.484Z,17.35
2022-10-28T02:25:59.644Z,17.39
2022-10-28T02:28:40.448Z,17.41
2022-10-28T02:31:18.680Z,17.29
2022-10-28T02:33:52.367Z,17.34
2022-10-28T02:36:24.083Z,17.29
2022-10-28T02:38:55.336Z,17.25
2022-10-28T02:41:27.882Z,17.21
2022-10-28T02:43:59.242Z,17.05
2022-10-28T02:46:30.799Z,17.16
2022-10-28T02:49:04.325Z,17.22
2022-10-28T02:51:37.535Z,17.14
2022-10-28T02:54:10.157Z,17.10
2022-10-28T02:56:41.455Z,17.20
2022-10-28T02:59:11.583Z,17.12
2022-10-28T03:01:39.974Z,17.04
2022-10-28T03:04:09.302Z,17.10
2022-10-28T03:06:37.246Z,17.18
2022-10-28T03:09:05.208Z,17.29
2022-10-28T03:11:34.280Z,17.36
2022-10-28T03:14:02.397Z,17.25
2022-10-28T03:16:30.498Z,17.18
2022-10-28T03:18:58.421Z,17.26
2022-10-28T03:21:27.749Z,17.24
2022-10-28T03:23:55.858Z,17.13
2022-10-28T03:26:23.809Z,17.11
2022-10-28T03:28:52.044Z,17.14
2022-10-28T03:31:19.974Z,17.06
2022-10-28T03:33:47.957Z,16.89
2022-10-28T03:36:16.501Z,17.02
2022-10-28T03:38:45.736Z,17.26
2022-10-28T03:41:13.768Z,17.25
2022-10-28T03:43:42.358Z,17.12
2022-10-28T03:46:10.307Z,17.07
2022-10-28T03:48:38.143Z,17.16
2022-10-28T03:51:06.200Z,16.96
2022-10-28T03:53:34.016Z,16.94
2022-10-28T03:56:04.151Z,16.77
2022-10-28T03:58:33.501Z,16.84
2022-10-28T04:01:02.938Z,17.03
2022-10-28T04:03:31.235Z,17.05
2022-10-28T04:05:59.057Z,17.05
2022-10-28T04:08:27.015Z,16.98
2022-10-28T04:10:54.802Z,17.03
2022-10-28T04:13:24.057Z,16.86
2022-10-28T04:15:51.931Z,16.96
2022-10-28T04:18:19.706Z,16.89
2022-10-28T04:20:47.878Z,16.90
2022-10-28T04:23:18.256Z,16.82
2022-10-28T04:25:47.063Z,16.73
2022-10-28T04:28:14.900Z,16.77
2022-10-28T04:30:44.106Z,16.68
2022-10-28T04:33:13.452Z,16.67
2022-10-28T04:35:43.119Z,16.82
2022-10-28T04:38:11.079Z,16.72
2022-10-28T04:40:38.967Z,16.78
2022-10-28T04:43:08.621Z,16.76
2022-10-28T04:45:38.498Z,16.77
2022-10-28T04:48:07.935Z,16.87
2022-10-28T04:50:35.847Z,16.86
2022-10-28T04:53:11.519Z,16.78
2022-10-28T04:55:39.591Z,16.74
2022-10-28T04:58:07.703Z,16.66
2022-10-28T05:00:35.604Z,16.72
2022-10-28T05:03:05.968Z,16.67
2022-10-28T05:05:37.852Z,16.66
2022-10-28T05:08:06.284Z,16.53
2022-10-28T05:10:34.372Z,16.58
2022-10-28T05:13:02.301Z,16.69
2022-10-28T05:15:31.433Z,16.47
2022-10-28T05:17:59.338Z,16.44
2022-10-28T05:20:27.352Z,16.54
2022-10-28T05:22:57.223Z,16.51
2022-10-28T05:25:25.602Z,16.36
2022-10-28T05:27:53.968Z,16.40
2022-10-28T05:30:21.983Z,16.56
2022-10-28T05:32:52.914Z,16.47
2022-10-28T05:35:22.996Z,16.53
2022-10-28T05:37:50.868Z,16.60
2022-10-28T05:40:20.283Z,16.62
2022-10-28T05:42:48.378Z,16.65
2022-10-28T05:45:16.742Z,16.75
2022-10-28T05:47:45.455Z,16.69
2022-10-28T05:50:14.234Z,16.84
2022-10-28T05:52:46.080Z,16.78
2022-10-28T05:55:14.224Z,16.66
2022-10-28T05:57:43.475Z,16.72
2022-10-28T06:00:12.914Z,16.91
2022-10-28T06:02:41.960Z,16.85
2022-10-28T06:05:10.696Z,16.85
2022-10-28T06:07:39.263Z,16.90
2022-10-28T06:10:09.248Z,17.05
2022-10-28T06:12:35.876Z,16.87
2022-10-28T06:15:05.949Z,16.95
2022-10-28T06:17:33.887Z,17.04
2022-10-28T06:20:01.784Z,17.04
2022-10-28T06:22:29.600Z,17.02
2022-10-28T06:24:57.394Z,17.11
2022-10-28T06:27:25.176Z,17.16
2022-10-28T06:29:52.956Z,17.17
2022-10-28T06:32:22.135Z,17.00
2022-10-28T06:34:50.021Z,17.07
2022-10-28T06:37:18.133Z,16.97
2022-10-28T06:39:49.756Z,17.13
2022-10-28T06:42:17.580Z,16.93
2022-10-28T06:44:45.709Z,17.09
2022-10-28T06:47:15.110Z,17.24
2022-10-28T06:49:44.265Z,17.09
2022-10-28T06:52:12.059Z,17.33
2022-10-28T06:54:39.896Z,17.12
2022-10-28T06:57:07.741Z,17.34
2022-10-28T06:59:35.531Z,16.95
2022-10-28T07:02:03.671Z,17.04
2022-10-28T07:04:31.634Z,17.06
2022-10-28T07:07:00.939Z,17.27
2022-10-28T07:09:28.903Z,17.25
2022-10-28T07:11:59.719Z,17.40
2022-10-28T07:14:32.092Z,17.56
2022-10-28T07:16:59.946Z,17.55
2022-10-28T07:19:27.756Z,17.32
2022-10-28T07:21:55.564Z,17.52
2022-10-28T07:24:24.798Z,17.52
2022-10-28T07:26:55.502Z,17.64
2022-10-28T07:29:25.587Z,17.63
2022-10-28T07:31:55.723Z,17.74
2022-10-28T07:34:26.909Z,17.65
2022-10-28T07:36:56.651Z,17.67
2022-10-28T07:39:25.976Z,17.75
2022-10-28T07:41:53.837Z,18.05
2022-10-28T07:44:21.717Z,17.90
2022-10-28T07:46:51.905Z,18.15
2022-10-28T07:49:20.814Z,18.19
2022-10-28T07:51:50.880Z,18.36
2022-10-28T07:54:18.776Z,18.40
2022-10-28T07:56:47.964Z,18.30
2022-10-28T07:59:15.818Z,18.39
2022-10-28T08:01:43.604Z,18.37
2022-10-28T08:04:11.461Z,18.70
2022-10-28T08:06:39.371Z,18.73
2022-10-28T08:09:07.160Z,18.85
2022-10-28T08:11:35.002Z,18.82
2022-10-28T08:14:04.263Z,18.85
2022-10-28T08:16:32.092Z,18.88
2022-10-28T08:19:02.868Z,18.89
2022-10-28T08:21:32.971Z,18.79
2022-10-28T08:24:00.843Z,18.89
2022-10-28T08:26:28.651Z,19.18
2022-10-28T08:28:56.619Z,19.59
2022-10-28T08:31:25.758Z,19.68
2022-10-28T08:33:53.782Z,20.13
2022-10-28T08:36:21.687Z,20.11
2022-10-28T08:38:49.460Z,19.93
2022-10-28T08:41:29.845Z,19.84
2022-10-28T08:44:25.529Z,19.57
2022-10-28T08:47:11.607Z,19.72
2022-10-28T08:49:44.475Z,19.84
2022-10-28T08:52:26.593Z,19.79
2022-10-28T08:54:59.671Z,19.78
2022-10-28T08:57:35.751Z,20.02
2022-10-28T09:00:06.884Z,19.88
2022-10-28T09:02:47.488Z,20.10
2022-10-28T09:05:22.289Z,20.35
2022-10-28T09:07:50.576Z,20.40
2022-10-28T09:10:24.930Z,20.39
2022-10-28T09:13:00.359Z,20.31
2022-10-28T09:15:35.548Z,20.46
2022-10-28T09:18:18.197Z,21.01
2022-10-28T09:20:53.448Z,21.13
2022-10-28T09:23:24.867Z,21.16
2022-10-28T09:26:05.844Z,21.01
2022-10-28T09:28:51.060Z,21.36
2022-10-28T09:31:26.709Z,21.46
2022-10-28T09:34:12.837Z,21.89
2022-10-28T09:36:44.316Z,22.09
2022-10-28T09:39:23.986Z,22.25
2022-10-28T09:41:56.046Z,21.96
2022-10-28T09:44:29.518Z,22.43
2022-10-28T09:47:02.134Z,22.30
2022-10-28T09:49:37.416Z,22.52
2022-10-28T09:52:15.220Z,22.67
2022-10-28T09:54:50.810Z,22.46
2022-10-28T09:57:19.159Z,23.22
2022-10-28T09:59:47.876Z,22.92
2022-10-28T10:02:27.912Z,23.19
2022-10-28T10:04:59.063Z,23.10
2022-10-28T10:07:33.537Z,22.91
2022-10-28T10:12:39.079Z,23.19
2022-10-28T10:15:12.505Z,23.37
2022-10-28T10:17:45.130Z,23.42
2022-10-28T10:20:16.670Z,23.91
2022-10-28T10:22:46.612Z,23.71
2022-10-28T10:25:32.394Z,24.18
2022-10-28T10:28:03.577Z,24.28
2022-10-28T10:30:34.637Z,24.37
2022-10-28T10:33:05.049Z,24.13
2022-10-28T10:35:36.582Z,24.19
2022-10-28T10:38:08.001Z,24.38
2022-10-28T10:40:40.677Z,24.74
2022-10-28T10:43:22.445Z,24.57
2022-10-28T10:45:54.068Z,24.79
2022-10-28T10:48:21.965Z,24.76
2022-10-28T10:50:52.242Z,24.72
2022-10-28T10:53:23.377Z,25.35
2022-10-28T10:56:00.583Z,25.52
2022-10-28T10:58:31.594Z,25.31
2022-10-28T11:01:02.581Z,25.45
2022-10-28T11:03:35.021Z,25.66
2022-10-28T11:06:24.064Z,25.43
2022-10-28T11:08:58.472Z,26.17
2022-10-28T11:11:33.804Z,25.95
2022-10-28T11:14:08.710Z,26.26
2022-10-28T11:16:48.771Z,26.00
2022-10-28T11:19:21.944Z,26.42
2022-10-28T11:22:02.618Z,26.58
2022-10-28T11:24:44.787Z,26.28
2022-10-28T11:27:21.959Z,26.43
2022-10-28T11:29:50.742Z,26.63
2022-10-28T11:32:29.492Z,26.77
2022-10-28T11:35:21.433Z,26.74
2022-10-28T11:38:04.762Z,26.93
2022-10-28T11:40:40.339Z,26.79
2022-10-28T11:43:26.016Z,26.86
2022-10-28T11:46:04.584Z,26.56
2022-10-28T11:49:07.784Z,26.89
2022-10-28T11:51:43.619Z,26.93
2022-10-28T11:54:43.099Z,27.26
2022-10-28T11:57:14.595Z,27.20
2022-10-28T12:00:15.640Z,27.09
2022-10-28T12:02:59.610Z,26.84
2022-10-28T12:05:35.929Z,26.45
2022-10-28T12:08:27.016Z,26.24
2022-10-28T12:11:11.966Z,26.52
2022-10-28T12:13:50.446Z,25.84
2022-10-28T12:16:26.045Z,26.46
2022-10-28T12:18:58.352Z,26.32
2022-10-28T12:21:32.599Z,26.47
2022-10-28T12:24:01.160Z,26.50
2022-10-28T12:26:39.032Z,26.45
2022-10-28T12:29:14.559Z,26.30
2022-10-28T12:31:46.295Z,26.12
2022-10-28T12:34:17.864Z,25.90
2022-10-28T12:36:49.659Z,25.77
2022-10-28T12:39:22.528Z,25.97
2022-10-28T12:42:01.724Z,25.77
2022-10-28T12:44:30.887Z,26.01
2022-10-28T12:47:08.030Z,25.98
2022-10-28T12:49:45.447Z,25.95
2022-10-28T12:52:25.155Z,25.85
2022-10-28T12:54:58.659Z,25.65
2022-10-28T12:57:29.993Z,25.69
2022-10-28T13:00:03.898Z,25.69
2022-10-28T13:02:37.539Z,25.67
2022-10-28T13:05:06.913Z,25.75
2022-10-28T13:08:11.010Z,25.79
2022-10-28T13:10:45.602Z,25.49
2022-10-28T13:13:34.814Z,25.59
2022-10-28T13:16:33.980Z,25.64
2022-10-28T13:19:24.002Z,25.63
2022-10-28T13:22:17.570Z,25.51
2022-10-28T13:24:56.083Z,25.78
2022-10-28T13:27:24.507Z,25.75
2022-10-28T13:29:56.472Z,25.75
2022-10-28T13:32:38.652Z,25.52
2022-10-28T13:35:16.330Z,25.69
2022-10-28T13:37:48.632Z,25.33
2022-10-28T13:40:44.479Z,25.65
2022-10-28T13:43:20.920Z,25.74
2022-10-28T13:45:53.140Z,25.67
2022-10-28T13:48:46.118Z,25.60
2022-10-28T13:51:46.366Z,25.43
2022-10-28T13:54:31.394Z,25.38
2022-10-28T13:57:06.128Z,25.31
2022-10-28T13:59:50.220Z,25.39
2022-10-28T14:02:40.050Z,25.15
2022-10-28T14:05:10.034Z,25.29
2022-10-28T14:07:42.020Z,25.40
2022-10-28T14:10:21.100Z,25.24
2022-10-28T14:12:53.152Z,25.03
2022-10-28T14:15:25.413Z,25.08
2022-10-28T14:18:09.688Z,24.94
2022-10-28T14:21:00.787Z,25.12
2022-10-28T14:23:51.825Z,25.03
2022-10-28T14:26:19.644Z,25.07
2022-10-28T14:28:52.852Z,25.08
2022-10-28T14:31:24.613Z,25.06
2022-10-28T14:34:37.722Z,25.00
2022-10-28T14:37:40.892Z,24.82
2022-10-28T14:40:22.878Z,25.01
2022-10-28T14:43:11.795Z,24.75
2022-10-28T14:45:49.126Z,24.69
2022-10-28T14:48:38.252Z,24.72
2022-10-28T14:51:14.144Z,24.73
2022-10-28T14:53:43.313Z,24.66
2022-10-28T14:56:18.314Z,24.73
2022-10-28T14:58:46.356Z,24.81
2022-10-28T15:01:26.365Z,24.75
2022-10-28T15:03:57.681Z,24.57
2022-10-28T15:06:34.024Z,24.64
2022-10-28T15:09:18.749Z,24.67
2022-10-28T15:11:50.610Z,24.56
2022-10-28T15:14:27.796Z,24.43
2022-10-28T15:16:56.044Z,24.24
2022-10-28T15:19:26.146Z,24.22
2022-10-28T15:22:07.500Z,24.18
2022-10-28T15:24:35.572Z,24.00
2022-10-28T15:27:03.424Z,24.02
2022-10-28T15:29:31.392Z,23.89
2022-10-28T15:32:07.364Z,24.10
2022-10-28T15:34:35.199Z,23.79
2022-10-28T15:37:05.362Z,23.94
2022-10-28T15:39:33.358Z,23.85
2022-10-28T15:42:02.611Z,23.75
2022-10-28T15:44:36.466Z,23.61
2022-10-28T15:47:19.833Z,23.66
2022-10-28T15:50:00.901Z,23.49
2022-10-28T15:52:38.751Z,23.59
2022-10-28T15:58:37.756Z,23.30
2022-10-28T16:01:10.614Z,23.40
2022-10-28T16:03:45.971Z,23.46
2022-10-28T16:06:26.077Z,23.27
2022-10-28T16:09:13.050Z,23.26
2022-10-28T16:11:44.763Z,23.21
2022-10-28T16:14:31.003Z,23.18
2022-10-28T16:17:10.383Z,23.24
2022-10-28T16:19:41.053Z,23.24
2022-10-28T16:22:13.655Z,23.37
2022-10-28T16:24:43.230Z,23.12
2022-10-28T16:27:19.585Z,23.14
2022-10-28T16:29:48.100Z,23.12
2022-10-28T16:32:17.690Z,23.15
2022-10-28T16:34:45.545Z,22.95
2022-10-28T16:37:21.976Z,22.81
2022-10-28T16:39:51.481Z,23.02
2022-10-28T16:42:20.628Z,23.00
2022-10-28T16:44:48.599Z,22.78
2022-10-28T16:47:18.098Z,22.82
2022-10-28T16:49:52.398Z,22.95
2022-10-28T16:52:26.429Z,22.88
2022-10-28T16:54:56.254Z,22.78
2022-10-28T16:59:57.249Z,22.45
2022-10-28T17:02:33.426Z,22.51
2022-10-28T17:05:05.379Z,22.54
2022-10-28T17:08:04.554Z,22.60
2022-10-28T17:10:44.304Z,22.41
2022-10-28T17:13:26.859Z,22.44
2022-10-28T17:15:56.077Z,22.52
2022-10-28T17:18:27.776Z,22.45
2022-10-28T17:21:02.174Z,22.38
2022-10-28T17:23:31.037Z,22.39
2022-10-28T17:26:03.843Z,22.32
2022-10-28T17:28:31.680Z,22.30
2022-10-28T17:31:04.215Z,22.26
2022-10-28T17:33:32.130Z,22.10
2022-10-28T17:36:01.980Z,22.18
2022-10-28T17:38:30.907Z,22.25
2022-10-28T17:41:00.102Z,22.20
2022-10-28T17:43:28.272Z,22.20
2022-10-28T17:46:04.347Z,22.05
2022-10-28T17:48:32.654Z,22.10
2022-10-28T17:51:00.453Z,22.13
2022-10-28T17:53:28.303Z,21.93
2022-10-28T17:55:57.090Z,22.04
2022-10-28T17:58:26.458Z,22.03
2022-10-28T18:01:00.009Z,22.10
2022-10-28T18:03:31.551Z,21.92
2022-10-28T18:06:03.592Z,21.91
2022-10-28T18:08:35.155Z,21.94
2022-10-28T18:11:03.244Z,21.84
2022-10-28T18:13:34.136Z,21.85
2022-10-28T18:16:05.479Z,21.76
2022-10-28T18:18:38.989Z,21.77
2022-10-28T18:21:10.743Z,21.56
2022-10-28T18:23:38.836Z,21.64
2022-10-28T18:26:09.053Z,21.68
2022-10-28T18:28:39.117Z,21.62
2022-10-28T18:31:08.542Z,21.72
2022-10-28T18:33:37.037Z,21.50
2022-10-28T18:36:07.253Z,21.59
2022-10-28T18:38:35.427Z,21.45
2022-10-28T18:41:03.361Z,21.54
2022-10-28T18:43:31.400Z,21.64
2022-10-28T18:46:03.094Z,21.59
2022-10-28T18:48:34.318Z,21.57
2022-10-28T18:51:06.697Z,21.41
2022-10-28T18:53:36.897Z,21.47
2022-10-28T18:56:06.140Z,21.35
2022-10-28T18:58:34.441Z,21.41
2022-10-28T19:01:08.829Z,21.38
2022-10-28T19:03:37.202Z,21.22
2022-10-28T19:06:07.133Z,21.34
2022-10-28T19:08:35.579Z,21.36
2022-10-28T19:11:07.202Z,21.27
2022-10-28T19:13:36.354Z,21.43
2022-10-28T19:16:05.081Z,21.45
2022-10-28T19:18:36.595Z,21.41
2022-10-28T19:21:05.180Z,21.39
2022-10-28T19:23:33.422Z,21.45
2022-10-28T19:26:01.576Z,21.48
2022-10-28T19:28:29.568Z,21.39
2022-10-28T19:31:02.050Z,21.32
2022-10-28T19:33:33.948Z,21.47
2022-10-28T19:36:07.809Z,21.40
2022-10-28T19:38:37.247Z,21.27
2022-10-28T19:41:07.022Z,21.48
2022-10-28T19:43:35.249Z,21.19
2022-10-28T19:46:08.385Z,21.33
2022-10-28T19:48:36.247Z,21.17
2022-10-28T19:51:04.675Z,21.02
2022-10-28T19:53:33.851Z,21.19
2022-10-28T19:56:03.417Z,21.21
2022-10-28T19:58:32.366Z,21.13
2022-10-28T20:01:02.081Z,21.15
2022-10-28T20:03:34.292Z,21.23
2022-10-28T20:06:05.817Z,21.22
2022-10-28T20:08:39.866Z,21.27
2022-10-28T20:11:09.757Z,21.13
2022-10-28T20:13:37.873Z,21.02
2022-10-28T20:16:07.874Z,21.22
2022-10-28T20:18:35.858Z,21.15
2022-10-28T20:21:05.394Z,21.08
2022-10-28T20:23:34.300Z,21.03
2022-10-28T20:26:04.533Z,21.03
2022-10-28T20:28:32.628Z,21.02
2022-10-28T20:31:02.421Z,21.07
2022-10-28T20:33:31.244Z,20.96
2022-10-28T20:36:00.031Z,20.81
2022-10-28T20:38:28.636Z,20.91
2022-10-28T20:40:58.552Z,20.94
2022-10-28T20:43:29.529Z,20.79
2022-10-28T20:45:59.710Z,20.73
2022-10-28T20:48:32.650Z,20.98
2022-10-28T20:51:02.393Z,20.87
2022-10-28T20:53:34.973Z,20.92
2022-10-28T20:56:03.316Z,20.94
2022-10-28T20:58:33.669Z,20.83
2022-10-28T21:01:05.820Z,20.79
2022-10-28T21:03:36.475Z,20.86
2022-10-28T21:06:04.832Z,20.71
2022-10-28T21:08:32.901Z,20.65
2022-10-28T21:11:02.467Z,20.84
2022-10-28T21:13:30.567Z,20.78
2022-10-28T21:16:00.467Z,20.68
2022-10-28T21:18:31.096Z,20.76
2022-10-28T21:21:00.282Z,20.66
2022-10-28T21:23:29.013Z,20.78
2022-10-28T21:25:59.709Z,20.74
2022-10-28T21:28:30.170Z,20.78
2022-10-28T21:31:05.620Z,20.66
2022-10-28T21:33:34.553Z,20.61
2022-10-28T21:36:11.586Z,20.59
2022-10-28T21:38:39.990Z,20.51
2022-10-28T21:41:11.016Z,20.38
2022-10-28T21:43:40.788Z,20.53
2022-10-28T21:46:10.426Z,20.65
2022-10-28T21:48:38.868Z,20.48
2022-10-28T21:51:13.461Z,20.48
2022-10-28T21:53:43.754Z,20.60
2022-10-28T21:56:17.076Z,20.47
2022-10-28T21:58:47.177Z,20.36
2022-10-28T22:01:18.702Z,20.47
2022-10-28T22:03:49.566Z,20.39
2022-10-28T22:06:17.402Z,20.42
2022-10-28T22:08:46.720Z,20.31
2022-10-28T22:11:16.280Z,20.42
2022-10-28T22:13:44.290Z,20.34
2022-10-28T22:16:14.142Z,20.51
2022-10-28T22:18:44.369Z,20.53
2022-10-28T22:21:14.692Z,20.34
2022-10-28T22:23:43.280Z,20.32
2022-10-28T22:26:12.653Z,20.23
2022-10-28T22:28:40.840Z,20.38
2022-10-28T22:31:11.065Z,20.42
2022-10-28T22:33:39.592Z,20.29
2022-10-28T22:36:10.795Z,20.26
2022-10-28T22:38:39.250Z,20.22
2022-10-28T22:41:08.516Z,20.32
2022-10-28T22:43:36.332Z,20.00
2022-10-28T22:46:04.782Z,20.06
2022-10-28T22:48:33.626Z,20.16
2022-10-28T22:51:01.649Z,20.22
2022-10-28T22:53:31.059Z,20.43
2022-10-28T22:55:58.916Z,20.35
2022-10-28T22:58:28.213Z,20.20
2022-10-28T23:01:05.939Z,20.17
2022-10-28T23:03:36.841Z,20.19
2022-10-28T23:06:05.602Z,19.92
2022-10-28T23:08:34.811Z,20.05
2022-10-28T23:11:02.817Z,20.00
2022-10-28T23:13:30.637Z,20.00
2022-10-28T23:16:03.841Z,20.23
2022-10-28T23:18:31.742Z,20.10
2022-10-28T23:21:04.799Z,20.13
2022-10-28T23:23:34.073Z,20.13
2022-10-28T23:26:02.035Z,20.14
2022-10-28T23:28:30.069Z,20.27
2022-10-28T23:31:00.670Z,20.06
2022-10-28T23:33:29.890Z,20.16
2022-10-28T23:35:58.221Z,20.19
2022-10-28T23:38:26.577Z,20.16
2022-10-28T23:41:02.957Z,19.98
2022-10-28T23:43:31.634Z,20.12
2022-10-28T23:46:00.257Z,20.14
2022-10-28T23:48:29.708Z,20.07
2022-10-28T23:50:58.133Z,20.12
2022-10-28T23:53:26.180Z,20.03
2022-10-28T23:55:54.152Z,20.06
2022-10-28T23:58:23.782Z,19.84
